createdAt,value
2024-04-01T00:00:46.423Z,64.04
2024-04-01T00:01:46.413Z,60.92
2024-04-01T00:02:46.425Z,58.78
2024-04-01T00:03:46.407Z,63.18
2024-04-01T00:04:46.395Z,60.60
2024-04-01T00:05:46.384Z,62.91
2024-04-01T00:06:46.376Z,60.25
2024-04-01T00:07:46.368Z,59.90
2024-04-01T00:08:46.358Z,62.85
2024-04-01T00:09:46.347Z,60.50
2024-04-01T00:10:46.335Z,60.92
2024-04-01T00:11:46.316Z,60.52
2024-04-01T00:12:46.321Z,62.22
2024-04-01T00:13:46.306Z,59.19
2024-04-01T00:14:46.294Z,59.81
2024-04-01T00:15:46.288Z,59.59
2024-04-01T00:16:46.292Z,61.41
2024-04-01T00:17:46.277Z,62.78
2024-04-01T00:18:46.287Z,62.31
2024-04-01T00:19:46.282Z,60.43
2024-04-01T00:20:46.268Z,61.93
2024-04-01T00:21:46.260Z,62.44
2024-04-01T00:22:46.255Z,62.63
2024-04-01T00:23:46.261Z,60.18
2024-04-01T00:24:46.230Z,60.38
2024-04-01T00:25:46.225Z,62.78
2024-04-01T00:26:46.239Z,61.62
2024-04-01T00:27:46.218Z,59.68
2024-04-01T00:28:46.233Z,59.79
2024-04-01T00:29:46.217Z,61.10
2024-04-01T00:30:46.233Z,60.30
2024-04-01T00:31:46.210Z,62.59
2024-04-01T00:32:46.246Z,61.52
2024-04-01T00:33:46.220Z,60.07
2024-04-01T00:34:46.209Z,58.71
2024-04-01T00:35:46.197Z,60.44
2024-04-01T00:36:46.187Z,62.94
2024-04-01T00:37:46.197Z,65.91
2024-04-01T00:38:46.172Z,60.89
2024-04-01T00:39:46.169Z,61.55
2024-04-01T00:40:46.153Z,60.65
2024-04-01T00:41:46.152Z,60.71
2024-04-01T00:42:46.150Z,61.22
2024-04-01T00:43:46.142Z,59.14
2024-04-01T00:44:46.141Z,59.88
2024-04-01T00:45:46.126Z,61.64
2024-04-01T00:46:46.120Z,61.38
2024-04-01T00:47:46.121Z,60.95
2024-04-01T00:48:46.123Z,63.33
2024-04-01T00:49:46.113Z,60.24
2024-04-01T00:50:46.107Z,62.35
2024-04-01T00:51:46.089Z,59.48
2024-04-01T00:52:46.087Z,62.76
2024-04-01T00:53:46.078Z,60.44
2024-04-01T00:54:46.062Z,60.11
2024-04-01T00:55:46.050Z,59.39
2024-04-01T00:56:46.048Z,59.90
2024-04-01T00:57:46.030Z,60.64
2024-04-01T00:58:46.022Z,61.15
2024-04-01T00:59:46.006Z,61.28
2024-04-01T01:00:46.020Z,62.42
2024-04-01T01:01:45.990Z,60.10
2024-04-01T01:02:45.978Z,59.45
2024-04-01T01:03:45.982Z,61.29
2024-04-01T01:04:45.992Z,61.95
2024-04-01T01:05:46.027Z,60.10
2024-04-01T01:06:45.958Z,60.33
2024-04-01T01:07:45.949Z,63.50
2024-04-01T01:08:45.945Z,62.89
2024-04-01T01:09:45.936Z,59.29
2024-04-01T01:10:45.930Z,61.84
2024-04-01T01:11:45.918Z,60.71
2024-04-01T01:12:45.920Z,62.06
2024-04-01T01:13:45.974Z,59.98
2024-04-01T01:14:45.973Z,61.15
2024-04-01T01:15:46.002Z,62.35
2024-04-01T01:16:46.030Z,63.77
2024-04-01T01:17:46.057Z,61.37
2024-04-01T01:18:46.055Z,60.46
2024-04-01T01:19:46.075Z,61.62
2024-04-01T01:20:46.091Z,61.96
2024-04-01T01:21:46.100Z,61.38
2024-04-01T01:22:46.109Z,61.15
2024-04-01T01:23:46.104Z,61.06
2024-04-01T01:24:46.139Z,60.72
2024-04-01T01:25:46.171Z,61.18
2024-04-01T01:26:46.172Z,59.65
2024-04-01T01:27:46.235Z,62.42
2024-04-01T01:28:46.269Z,58.83
2024-04-01T01:29:46.302Z,61.15
2024-04-01T01:30:46.373Z,60.17
2024-04-01T01:31:46.401Z,61.34
2024-04-01T01:32:46.436Z,63.30
2024-04-01T01:33:46.433Z,61.13
2024-04-01T01:34:46.462Z,61.68
2024-04-01T01:35:46.492Z,60.11
2024-04-01T01:36:46.477Z,60.59
2024-04-01T01:37:46.527Z,58.68
2024-04-01T01:38:46.605Z,59.58
2024-04-01T01:39:46.613Z,59.48
2024-04-01T01:40:46.603Z,59.96
2024-04-01T01:41:46.594Z,60.51
2024-04-01T01:42:46.594Z,61.21
2024-04-01T01:43:46.589Z,62.34
2024-04-01T01:44:46.602Z,61.96
2024-04-01T01:45:46.600Z,60.54
2024-04-01T01:46:46.593Z,62.80
2024-04-01T01:47:46.584Z,59.92
2024-04-01T01:48:46.608Z,60.61
2024-04-01T01:49:46.607Z,60.02
2024-04-01T01:50:46.609Z,63.66
2024-04-01T01:51:46.623Z,63.86
2024-04-01T01:52:46.634Z,61.55
2024-04-01T01:53:46.620Z,59.67
2024-04-01T01:54:46.695Z,62.14
2024-04-01T01:55:46.690Z,61.63
2024-04-01T01:56:46.683Z,62.63
2024-04-01T01:57:46.684Z,60.41
2024-04-01T01:58:46.670Z,61.90
2024-04-01T01:59:46.680Z,63.25
2024-04-01T02:00:46.653Z,62.96
2024-04-01T02:01:46.660Z,61.97
2024-04-01T02:02:46.659Z,60.60
2024-04-01T02:03:46.664Z,61.70
2024-04-01T02:04:46.675Z,61.39
2024-04-01T02:05:46.676Z,61.68
2024-04-01T02:06:46.663Z,59.43
2024-04-01T02:07:46.645Z,60.82
2024-04-01T02:08:46.644Z,60.78
2024-04-01T02:09:46.704Z,60.25
2024-04-01T02:10:46.694Z,60.91
2024-04-01T02:11:46.703Z,59.32
2024-04-01T02:12:46.706Z,59.23
2024-04-01T02:13:46.722Z,60.46
2024-04-01T02:14:46.731Z,60.81
2024-04-01T02:15:46.741Z,59.79
2024-04-01T02:16:46.805Z,60.94
2024-04-01T02:17:46.836Z,62.63
2024-04-01T02:18:46.839Z,59.20
2024-04-01T02:19:46.863Z,60.12
2024-04-01T02:20:46.903Z,58.75
2024-04-01T02:21:46.914Z,60.44
2024-04-01T02:22:46.935Z,60.54
2024-04-01T02:23:46.934Z,59.73
2024-04-01T02:24:46.961Z,60.84
2024-04-01T02:25:46.980Z,59.43
2024-04-01T02:26:47.017Z,62.41
2024-04-01T02:27:47.045Z,61.74
2024-04-01T02:28:47.050Z,62.32
2024-04-01T02:29:47.107Z,61.53
2024-04-01T02:30:47.147Z,59.74
2024-04-01T02:31:47.187Z,63.14
2024-04-01T02:32:47.166Z,65.55
2024-04-01T02:33:47.161Z,65.14
2024-04-01T02:34:47.178Z,60.22
2024-04-01T02:35:47.204Z,60.17
2024-04-01T02:36:47.246Z,60.62
2024-04-01T02:37:47.281Z,62.12
2024-04-01T02:38:47.308Z,61.88
2024-04-01T02:39:47.316Z,60.15
2024-04-01T02:40:47.334Z,59.60
2024-04-01T02:41:47.353Z,63.96
2024-04-01T02:42:47.367Z,64.67
2024-04-01T02:43:47.386Z,62.92
2024-04-01T02:44:47.374Z,62.07
2024-04-01T02:45:47.403Z,61.76
2024-04-01T02:46:47.422Z,60.93
2024-04-01T02:47:47.424Z,63.05
2024-04-01T02:48:47.454Z,61.62
2024-04-01T02:49:47.477Z,61.19
2024-04-01T02:50:47.521Z,60.17
2024-04-01T02:51:47.571Z,61.39
2024-04-01T02:52:47.587Z,62.13
2024-04-01T02:53:47.605Z,60.30
2024-04-01T02:54:47.663Z,60.24
2024-04-01T02:55:47.705Z,61.95
2024-04-01T02:56:47.712Z,62.68
2024-04-01T02:57:47.717Z,59.32
2024-04-01T02:58:47.871Z,60.03
2024-04-01T02:59:47.941Z,60.92
2024-04-01T03:00:47.951Z,59.76
2024-04-01T03:01:47.947Z,60.97
2024-04-01T03:02:47.915Z,62.89
2024-04-01T03:03:47.923Z,61.72
2024-04-01T03:04:48.047Z,60.67
2024-04-01T03:05:48.019Z,61.50
2024-04-01T03:06:48.067Z,60.91
2024-04-01T03:07:48.129Z,63.27
2024-04-01T03:08:48.191Z,59.74
2024-04-01T03:09:48.227Z,59.17
2024-04-01T03:10:48.228Z,60.44
2024-04-01T03:11:48.289Z,60.18
2024-04-01T03:12:48.359Z,61.90
2024-04-01T03:13:48.394Z,61.79
2024-04-01T03:14:48.404Z,59.47
2024-04-01T03:15:48.430Z,60.31
2024-04-01T03:16:48.461Z,60.81
2024-04-01T03:17:48.495Z,63.46
2024-04-01T03:18:48.540Z,60.47
2024-04-01T03:19:48.576Z,62.25
2024-04-01T03:20:48.617Z,61.94
2024-04-01T03:21:48.615Z,62.22
2024-04-01T03:22:48.640Z,62.10
2024-04-01T03:23:50.437Z,61.07
2024-04-01T03:24:48.689Z,59.88
2024-04-01T03:25:48.676Z,60.66
2024-04-01T03:26:48.667Z,60.82
2024-04-01T03:27:48.649Z,62.80
2024-04-01T03:28:48.640Z,60.05
2024-04-01T03:29:48.648Z,60.35
2024-04-01T03:30:48.629Z,62.67
2024-04-01T03:31:48.652Z,61.67
2024-04-01T03:32:48.595Z,61.33
2024-04-01T03:33:48.605Z,61.20
2024-04-01T03:34:48.576Z,59.34
2024-04-01T03:35:48.561Z,61.82
2024-04-01T03:36:48.557Z,60.21
2024-04-01T03:37:48.550Z,63.15
2024-04-01T03:38:48.543Z,59.60
2024-04-01T03:39:48.524Z,61.05
2024-04-01T03:40:48.516Z,60.12
2024-04-01T03:41:48.523Z,61.13
2024-04-01T03:42:48.534Z,59.55
2024-04-01T03:43:48.497Z,61.43
2024-04-01T03:44:48.484Z,64.30
2024-04-01T03:45:48.479Z,59.97
2024-04-01T03:46:48.464Z,60.98
2024-04-01T03:47:48.467Z,60.98
2024-04-01T03:48:48.459Z,62.64
2024-04-01T03:49:48.445Z,61.67
2024-04-01T03:50:48.439Z,59.20
2024-04-01T03:51:48.430Z,62.08
2024-04-01T03:52:48.435Z,60.83
2024-04-01T03:53:48.414Z,61.58
2024-04-01T03:54:48.409Z,60.13
2024-04-01T03:55:48.399Z,60.27
2024-04-01T03:56:48.384Z,61.45
2024-04-01T03:57:48.380Z,61.32
2024-04-01T03:58:48.375Z,61.24
2024-04-01T03:59:48.386Z,62.00
2024-04-01T04:00:48.393Z,61.29
2024-04-01T04:01:48.365Z,60.15
2024-04-01T04:02:48.370Z,62.04
2024-04-01T04:03:48.362Z,61.55
2024-04-01T04:04:48.367Z,61.40
2024-04-01T04:05:48.358Z,60.72
2024-04-01T04:06:48.368Z,59.05
2024-04-01T04:07:48.357Z,60.95
2024-04-01T04:08:48.356Z,60.33
2024-04-01T04:09:48.334Z,58.92
2024-04-01T04:10:48.323Z,61.51
2024-04-01T04:11:48.323Z,59.21
2024-04-01T04:12:48.311Z,60.78
2024-04-01T04:13:48.308Z,63.41
2024-04-01T04:14:48.291Z,60.60
2024-04-01T04:15:48.285Z,62.91
2024-04-01T04:16:48.273Z,58.79
2024-04-01T04:17:48.268Z,61.93
2024-04-01T04:18:48.268Z,61.25
2024-04-01T04:19:48.258Z,61.65
2024-04-01T04:20:48.268Z,60.78
2024-04-01T04:21:48.285Z,63.10
2024-04-01T04:22:48.262Z,59.20
2024-04-01T04:23:48.281Z,59.78
2024-04-01T04:24:48.298Z,61.10
2024-04-01T04:25:48.266Z,57.86
2024-04-01T04:26:48.333Z,64.49
2024-04-01T04:27:48.294Z,61.04
2024-04-01T04:28:48.315Z,60.64
2024-04-01T04:29:48.189Z,59.74
2024-04-01T04:30:48.186Z,62.83
2024-04-01T04:31:48.184Z,63.07
2024-04-01T04:32:48.169Z,62.24
2024-04-01T04:33:48.169Z,59.83
2024-04-01T04:34:48.167Z,61.58
2024-04-01T04:35:48.180Z,60.10
2024-04-01T04:36:48.203Z,59.46
2024-04-01T04:37:48.252Z,61.14
2024-04-01T04:38:48.297Z,62.62
2024-04-01T04:39:48.508Z,60.41
2024-04-01T04:40:48.453Z,58.91
2024-04-01T04:41:48.496Z,62.93
2024-04-01T04:42:48.538Z,61.25
2024-04-01T04:43:48.556Z,61.79
2024-04-01T04:44:48.568Z,60.82
2024-04-01T04:45:48.578Z,59.74
2024-04-01T04:46:48.600Z,60.79
2024-04-01T04:47:48.659Z,59.65
2024-04-01T04:48:48.663Z,60.57
2024-04-01T04:49:55.950Z,50.00
2024-04-01T04:50:55.932Z,50.00
2024-04-01T04:51:55.927Z,50.00
2024-04-01T04:52:55.920Z,50.00
2024-04-01T04:53:55.915Z,50.00
2024-04-01T04:54:55.928Z,50.00
2024-04-01T04:55:55.922Z,51.23
2024-04-01T04:56:55.928Z,51.23
2024-04-01T04:57:55.912Z,50.97
2024-04-01T04:58:55.914Z,53.08
2024-04-01T04:59:55.904Z,50.83
2024-04-01T05:00:55.906Z,51.04
2024-04-01T05:01:55.917Z,51.20
2024-04-01T05:02:55.920Z,54.06
2024-04-01T05:03:55.924Z,51.43
2024-04-01T05:04:55.923Z,52.28
2024-04-01T05:05:55.910Z,52.25
2024-04-01T05:06:55.913Z,55.23
2024-04-01T05:07:55.902Z,53.94
2024-04-01T05:08:55.899Z,52.37
2024-04-01T05:09:55.897Z,53.08
2024-04-01T05:10:55.894Z,52.69
2024-04-01T05:11:55.875Z,53.67
2024-04-01T05:12:55.852Z,52.65
2024-04-01T05:13:55.852Z,50.95
2024-04-01T05:14:55.844Z,55.71
2024-04-01T05:15:55.840Z,53.21
2024-04-01T05:16:55.862Z,56.29
2024-04-01T05:17:55.826Z,54.29
2024-04-01T05:18:55.821Z,55.38
2024-04-01T05:19:55.822Z,54.35
2024-04-01T05:20:55.806Z,52.21
2024-04-01T05:21:55.804Z,54.24
2024-04-01T05:22:55.849Z,51.74
2024-04-01T05:23:55.810Z,54.71
2024-04-01T05:24:55.802Z,53.82
2024-04-01T05:25:55.820Z,52.88
2024-04-01T05:26:55.856Z,53.61
2024-04-01T05:27:55.882Z,54.40
2024-04-01T05:28:55.943Z,53.89
2024-04-01T05:29:55.994Z,54.38
2024-04-01T05:30:56.034Z,54.22
2024-04-01T05:31:56.128Z,54.41
2024-04-01T05:32:56.084Z,53.67
2024-04-01T05:33:56.103Z,52.68
2024-04-01T05:34:56.116Z,54.34
2024-04-01T05:35:56.124Z,53.63
2024-04-01T05:36:56.144Z,57.00
2024-04-01T05:37:56.155Z,53.88
2024-04-01T05:38:56.210Z,54.43
2024-04-01T05:39:56.217Z,54.32
2024-04-01T05:40:56.255Z,54.29
2024-04-01T05:41:56.276Z,53.25
2024-04-01T05:42:56.299Z,53.42
2024-04-01T05:43:56.337Z,54.40
2024-04-01T05:44:56.348Z,54.34
2024-04-01T05:45:56.387Z,54.21
2024-04-01T05:46:56.428Z,53.29
2024-04-01T05:47:56.483Z,53.52
2024-04-01T05:48:56.530Z,55.60
2024-04-01T05:49:56.572Z,53.82
2024-04-01T05:50:56.608Z,55.11
2024-04-01T05:51:56.740Z,52.82
2024-04-01T05:52:56.705Z,55.42
2024-04-01T05:53:56.735Z,55.31
2024-04-01T05:54:56.770Z,55.09
2024-04-01T05:55:56.805Z,53.54
2024-04-01T05:56:56.917Z,54.21
2024-04-01T05:57:56.858Z,55.68
2024-04-01T05:58:56.872Z,57.03
2024-04-01T05:59:56.882Z,53.26
2024-04-01T06:00:56.933Z,53.49
2024-04-01T06:01:56.961Z,55.59
2024-04-01T06:02:56.967Z,53.65
2024-04-01T06:03:56.978Z,55.55
2024-04-01T06:04:57.012Z,53.92
2024-04-01T06:05:57.024Z,55.17
2024-04-01T06:06:57.048Z,54.37
2024-04-01T06:07:57.081Z,54.86
2024-04-01T06:08:57.099Z,53.47
2024-04-01T06:09:57.141Z,53.74
2024-04-01T06:10:57.161Z,53.70
2024-04-01T06:11:57.185Z,53.62
2024-04-01T06:12:57.216Z,54.12
2024-04-01T06:13:57.230Z,52.48
2024-04-01T06:14:57.219Z,53.59
2024-04-01T06:15:57.258Z,54.16
2024-04-01T06:16:57.288Z,54.28
2024-04-01T06:17:57.316Z,53.51
2024-04-01T06:18:57.305Z,54.37
2024-04-01T06:19:57.308Z,53.62
2024-04-01T06:20:57.345Z,53.07
2024-04-01T06:21:57.380Z,53.27
2024-04-01T06:22:57.385Z,53.50
2024-04-01T06:23:57.393Z,54.38
2024-04-01T06:24:57.390Z,53.81
2024-04-01T06:25:57.407Z,54.63
2024-04-01T06:26:57.438Z,53.90
2024-04-01T06:27:57.484Z,53.33
2024-04-01T06:28:57.501Z,54.16
2024-04-01T06:29:57.508Z,51.56
2024-04-01T06:30:57.554Z,54.93
2024-04-01T06:31:57.570Z,54.28
2024-04-01T06:32:57.652Z,54.57
2024-04-01T06:33:57.716Z,54.73
2024-04-01T06:34:57.747Z,54.27
2024-04-01T06:35:57.820Z,53.86
2024-04-01T06:36:57.855Z,53.46
2024-04-01T06:37:57.892Z,55.85
2024-04-01T06:38:57.904Z,53.87
2024-04-01T06:39:57.917Z,53.68
2024-04-01T06:40:57.936Z,53.66
2024-04-01T06:41:57.972Z,54.06
2024-04-01T06:42:58.011Z,56.40
2024-04-01T06:43:58.033Z,53.32
2024-04-01T06:44:58.055Z,53.24
2024-04-01T06:45:58.071Z,54.21
2024-04-01T06:46:58.115Z,53.83
2024-04-01T06:47:58.204Z,54.09
2024-04-01T06:48:58.232Z,54.38
2024-04-01T06:49:58.265Z,54.20
2024-04-01T06:50:58.330Z,55.16
2024-04-01T06:51:58.414Z,54.05
2024-04-01T06:52:58.440Z,54.58
2024-04-01T06:53:58.494Z,53.64
2024-04-01T06:54:58.558Z,55.03
2024-04-01T06:55:58.597Z,55.06
2024-04-01T06:56:58.656Z,56.19
2024-04-01T06:57:58.700Z,54.08
2024-04-01T06:58:58.765Z,54.15
2024-04-01T06:59:58.833Z,54.57
2024-04-01T07:00:58.909Z,52.78
2024-04-01T07:01:58.968Z,55.60
2024-04-01T07:02:59.038Z,56.60
2024-04-01T07:03:59.111Z,55.30
2024-04-01T07:04:59.177Z,54.28
2024-04-01T07:05:59.257Z,54.00
2024-04-01T07:06:59.309Z,56.77
2024-04-01T07:07:59.370Z,54.30
2024-04-01T07:08:59.425Z,53.64
2024-04-01T07:09:59.464Z,55.50
2024-04-01T07:10:59.535Z,56.12
2024-04-01T07:11:59.602Z,52.85
2024-04-01T07:12:59.661Z,54.30
2024-04-01T07:13:59.712Z,54.87
2024-04-01T07:14:59.782Z,54.38
2024-04-01T07:15:59.835Z,55.04
2024-04-01T07:16:59.892Z,55.40
2024-04-01T07:17:59.943Z,55.64
2024-04-01T07:19:00.017Z,54.54
2024-04-01T07:20:00.073Z,54.68
2024-04-01T07:21:00.100Z,53.20
2024-04-01T07:22:00.128Z,54.68
2024-04-01T07:23:00.233Z,54.90
2024-04-01T07:24:00.204Z,53.49
2024-04-01T07:25:00.300Z,54.95
2024-04-01T07:26:00.331Z,53.95
2024-04-01T07:27:00.355Z,54.06
2024-04-01T07:28:00.397Z,54.85
2024-04-01T07:29:00.457Z,54.93
2024-04-01T07:30:00.522Z,54.28
2024-04-01T07:31:00.532Z,54.89
2024-04-01T07:32:00.585Z,53.92
2024-04-01T07:33:00.902Z,56.96
2024-04-01T07:34:00.696Z,54.75
2024-04-01T07:35:00.849Z,54.76
2024-04-01T07:36:00.815Z,55.35
2024-04-01T07:37:00.863Z,55.46
2024-04-01T07:38:00.925Z,56.31
2024-04-01T07:39:01.040Z,55.18
2024-04-01T07:40:01.022Z,54.56
2024-04-01T07:41:01.076Z,53.96
2024-04-01T07:42:01.119Z,52.69
2024-04-01T07:43:01.187Z,54.04
2024-04-01T07:44:01.233Z,53.72
2024-04-01T07:45:01.290Z,55.65
2024-04-01T07:46:01.339Z,54.34
2024-04-01T07:47:01.410Z,55.03
2024-04-01T07:48:01.441Z,53.85
2024-04-01T07:49:01.524Z,53.93
2024-04-01T07:50:01.563Z,53.25
2024-04-01T07:51:01.621Z,54.12
2024-04-01T07:52:01.641Z,55.30
2024-04-01T07:53:01.688Z,54.53
2024-04-01T07:54:01.756Z,56.92
2024-04-01T07:55:01.819Z,54.99
2024-04-01T07:56:01.868Z,54.25
2024-04-01T07:57:01.909Z,54.29
2024-04-01T07:58:01.960Z,53.98
2024-04-01T07:59:03.946Z,53.11
2024-04-01T08:00:02.002Z,55.66
2024-04-01T08:01:01.999Z,54.66
2024-04-01T08:02:01.979Z,54.11
2024-04-01T08:03:01.973Z,54.10
2024-04-01T08:04:01.954Z,54.48
2024-04-01T08:05:01.942Z,53.21
2024-04-01T08:06:01.931Z,54.55
2024-04-01T08:07:01.910Z,54.09
2024-04-01T08:08:01.909Z,55.51
2024-04-01T08:09:01.883Z,54.47
2024-04-01T08:10:01.880Z,53.13
2024-04-01T08:11:01.861Z,53.33
2024-04-01T08:12:01.845Z,54.58
2024-04-01T08:13:01.843Z,55.23
2024-04-01T08:14:01.827Z,55.63
2024-04-01T08:15:01.820Z,54.18
2024-04-01T08:16:01.825Z,55.08
2024-04-01T08:17:01.784Z,55.74
2024-04-01T08:18:01.775Z,55.29
2024-04-01T08:19:01.776Z,53.56
2024-04-01T08:20:01.747Z,54.74
2024-04-01T08:21:01.738Z,55.43
2024-04-01T08:22:01.733Z,56.22
2024-04-01T08:23:01.714Z,54.86
2024-04-01T08:24:01.721Z,52.36
2024-04-01T08:25:01.709Z,54.29
2024-04-01T08:26:01.701Z,54.30
2024-04-01T08:27:01.687Z,54.80
2024-04-01T08:28:01.666Z,53.89
2024-04-01T08:29:01.664Z,53.65
2024-04-01T08:30:01.652Z,53.97
2024-04-01T08:31:01.623Z,52.64
2024-04-01T08:32:01.602Z,52.36
2024-04-01T08:33:01.583Z,54.81
2024-04-01T08:34:01.578Z,55.17
2024-04-01T08:35:01.552Z,53.73
2024-04-01T08:36:01.532Z,54.42
2024-04-01T08:37:01.530Z,54.54
2024-04-01T08:38:01.514Z,53.85
2024-04-01T08:39:01.549Z,52.33
2024-04-01T08:40:01.614Z,53.97
2024-04-01T08:41:01.668Z,55.64
2024-04-01T08:42:01.714Z,53.83
2024-04-01T08:43:01.785Z,53.63
2024-04-01T08:44:01.819Z,52.68
2024-04-01T08:45:01.869Z,54.83
2024-04-01T08:46:01.930Z,54.22
2024-04-01T08:47:01.976Z,53.51
2024-04-01T08:48:02.034Z,53.19
2024-04-01T08:49:02.093Z,53.34
2024-04-01T08:50:02.133Z,51.76
2024-04-01T08:51:02.201Z,54.80
2024-04-01T08:52:02.228Z,55.99
2024-04-01T08:53:02.282Z,53.48
2024-04-01T08:54:02.344Z,55.24
2024-04-01T08:55:02.394Z,55.75
2024-04-01T08:56:02.466Z,54.43
2024-04-01T08:57:02.494Z,56.49
2024-04-01T08:58:02.551Z,54.53
2024-04-01T08:59:02.595Z,52.88
2024-04-01T09:00:02.645Z,55.01
2024-04-01T09:01:02.697Z,53.59
2024-04-01T09:02:02.749Z,56.17
2024-04-01T09:03:02.804Z,52.09
2024-04-01T09:04:02.855Z,55.44
2024-04-01T09:05:02.926Z,55.21
2024-04-01T09:06:02.956Z,54.97
2024-04-01T09:07:03.013Z,53.63
2024-04-01T09:08:03.061Z,54.29
2024-04-01T09:09:03.119Z,53.11
2024-04-01T09:10:03.197Z,51.88
2024-04-01T09:11:03.191Z,55.71
2024-04-01T09:12:03.241Z,54.05
2024-04-01T09:13:03.278Z,54.19
2024-04-01T09:14:03.317Z,52.87
2024-04-01T09:15:03.377Z,53.84
2024-04-01T09:16:03.409Z,52.94
2024-04-01T09:17:03.485Z,53.62
2024-04-01T09:18:03.502Z,56.63
2024-04-01T09:19:03.553Z,50.08
2024-04-01T09:20:03.586Z,53.11
2024-04-01T09:21:03.638Z,55.32
2024-04-01T09:22:03.690Z,51.16
2024-04-01T09:23:03.734Z,52.77
2024-04-01T09:24:03.787Z,53.35
2024-04-01T09:25:03.812Z,52.88
2024-04-01T09:26:03.847Z,52.98
2024-04-01T09:27:03.915Z,53.02
2024-04-01T09:28:03.943Z,56.18
2024-04-01T09:29:03.974Z,53.82
2024-04-01T09:30:04.000Z,54.13
2024-04-01T09:31:04.021Z,52.30
2024-04-01T09:32:04.062Z,55.05
2024-04-01T09:33:04.091Z,53.94
2024-04-01T09:34:04.137Z,52.68
2024-04-01T09:35:04.171Z,54.75
2024-04-01T09:36:04.229Z,53.12
2024-04-01T09:37:04.236Z,52.35
2024-04-01T09:38:04.274Z,53.55
2024-04-01T09:39:04.312Z,51.62
2024-04-01T09:40:04.347Z,54.93
2024-04-01T09:41:04.389Z,54.62
2024-04-01T09:42:04.419Z,53.52
2024-04-01T09:43:04.457Z,54.04
2024-04-01T09:44:04.499Z,58.16
2024-04-01T09:45:04.533Z,55.62
2024-04-01T09:46:05.432Z,53.80
2024-04-01T09:47:04.771Z,56.32
2024-04-01T09:48:04.635Z,54.00
2024-04-01T09:49:04.680Z,57.92
2024-04-01T09:50:04.702Z,55.00
2024-04-01T09:51:04.737Z,57.28
2024-04-01T09:52:06.565Z,52.14
2024-04-01T09:53:04.764Z,53.60
2024-04-01T09:54:04.752Z,55.97
2024-04-01T09:55:04.739Z,56.15
2024-04-01T09:56:04.741Z,55.68
2024-04-01T09:57:04.741Z,53.83
2024-04-01T09:58:05.034Z,54.18
2024-04-01T09:59:04.727Z,54.24
2024-04-01T10:00:04.718Z,53.87
2024-04-01T10:01:04.708Z,53.60
2024-04-01T10:02:04.698Z,54.20
2024-04-01T10:03:04.717Z,54.97
2024-04-01T10:04:04.679Z,53.92
2024-04-01T10:05:04.651Z,57.01
2024-04-01T10:06:04.640Z,54.57
2024-04-01T10:07:04.627Z,54.18
2024-04-01T10:08:04.618Z,55.71
2024-04-01T10:09:04.600Z,54.33
2024-04-01T10:10:05.386Z,57.05
2024-04-01T10:11:04.584Z,52.90
2024-04-01T10:12:04.556Z,55.11
2024-04-01T10:13:04.548Z,56.12
2024-04-01T10:14:04.546Z,55.98
2024-04-01T10:15:04.516Z,55.49
2024-04-01T10:16:04.500Z,57.84
2024-04-01T10:17:04.487Z,53.93
2024-04-01T10:18:04.465Z,55.14
2024-04-01T10:19:04.459Z,53.46
2024-04-01T10:20:04.436Z,57.26
2024-04-01T10:21:04.431Z,56.53
2024-04-01T10:22:04.409Z,56.84
2024-04-01T10:23:04.381Z,56.29
2024-04-01T10:24:04.374Z,54.98
2024-04-01T10:25:04.356Z,54.28
2024-04-01T10:26:05.111Z,56.19
2024-04-01T10:27:04.326Z,55.87
2024-04-01T10:28:04.300Z,54.32
2024-04-01T10:29:04.281Z,54.04
2024-04-01T10:30:04.266Z,55.95
2024-04-01T10:31:04.238Z,55.17
2024-04-01T10:32:05.454Z,54.42
2024-04-01T10:33:04.218Z,54.91
2024-04-01T10:34:04.214Z,56.15
2024-04-01T10:35:09.316Z,54.93
2024-04-01T10:36:13.748Z,55.12
2024-04-01T10:37:05.172Z,55.14
2024-04-01T10:38:04.160Z,56.19
2024-04-01T10:39:04.139Z,56.79
2024-04-01T10:40:04.148Z,58.17
2024-04-01T10:41:04.115Z,59.48
2024-04-01T10:42:04.109Z,58.63
2024-04-01T10:43:04.089Z,57.78
2024-04-01T10:44:04.074Z,59.03
2024-04-01T10:45:04.067Z,56.93
2024-04-01T10:46:04.043Z,57.31
2024-04-01T10:47:04.026Z,54.30
2024-04-01T10:48:04.232Z,56.85
2024-04-01T10:49:03.987Z,55.82
2024-04-01T10:50:03.963Z,56.24
2024-04-01T10:51:03.946Z,58.23
2024-04-01T10:52:03.934Z,56.44
2024-04-01T10:53:03.903Z,56.43
2024-04-01T10:54:03.895Z,55.87
2024-04-01T10:55:03.897Z,56.82
2024-04-01T10:56:03.869Z,56.63
2024-04-01T10:57:03.843Z,55.63
2024-04-01T10:58:03.813Z,54.87
2024-04-01T10:59:04.834Z,57.72
2024-04-01T11:00:03.796Z,55.05
2024-04-01T11:01:03.767Z,57.87
2024-04-01T11:02:03.831Z,54.59
2024-04-01T11:03:03.745Z,55.13
2024-04-01T11:04:03.727Z,57.03
2024-04-01T11:05:03.706Z,56.70
2024-04-01T11:06:03.693Z,54.67
2024-04-01T11:07:03.689Z,55.77
2024-04-01T11:08:03.670Z,56.22
2024-04-01T11:09:03.654Z,55.34
2024-04-01T11:10:03.630Z,58.20
2024-04-01T11:11:03.630Z,58.24
2024-04-01T11:12:03.619Z,55.34
2024-04-01T11:13:03.608Z,57.66
2024-04-01T11:14:03.584Z,55.45
2024-04-01T11:15:03.583Z,57.22
2024-04-01T11:16:03.601Z,55.89
2024-04-01T11:17:03.641Z,55.01
2024-04-01T11:18:03.656Z,55.11
2024-04-01T11:19:03.677Z,54.20
2024-04-01T11:20:03.715Z,54.45
2024-04-01T11:21:03.715Z,54.05
2024-04-01T11:22:03.743Z,55.75
2024-04-01T11:23:03.763Z,55.33
2024-04-01T11:24:03.787Z,54.78
2024-04-01T11:25:03.802Z,54.11
2024-04-01T11:26:03.927Z,55.44
2024-04-01T11:27:03.833Z,55.34
2024-04-01T11:28:04.422Z,54.63
2024-04-01T11:29:03.903Z,55.44
2024-04-01T11:30:03.931Z,55.99
2024-04-01T11:31:03.912Z,54.95
2024-04-01T11:32:03.932Z,53.63
2024-04-01T11:33:03.964Z,55.44
2024-04-01T11:34:03.976Z,53.64
2024-04-01T11:35:03.983Z,52.02
2024-04-01T11:36:04.001Z,54.21
2024-04-01T11:37:04.019Z,53.93
2024-04-01T11:38:04.043Z,54.07
2024-04-01T11:39:04.050Z,53.00
2024-04-01T11:40:04.080Z,55.27
2024-04-01T11:41:04.087Z,55.91
2024-04-01T11:42:04.112Z,53.89
2024-04-01T11:43:04.111Z,52.47
2024-04-01T11:44:04.139Z,53.84
2024-04-01T11:45:04.156Z,55.43
2024-04-01T11:46:04.161Z,54.20
2024-04-01T11:47:04.170Z,53.50
2024-04-01T11:48:04.191Z,56.03
2024-04-01T11:49:04.216Z,55.99
2024-04-01T11:50:04.241Z,53.33
2024-04-01T11:51:04.254Z,54.96
2024-04-01T11:52:04.265Z,54.04
2024-04-01T11:53:04.284Z,51.80
2024-04-01T11:54:04.314Z,54.61
2024-04-01T11:55:04.322Z,55.38
2024-04-01T11:56:04.341Z,54.50
2024-04-01T11:57:04.355Z,55.03
2024-04-01T11:58:04.375Z,52.86
2024-04-01T11:59:04.398Z,52.97
2024-04-01T12:00:04.414Z,53.61
2024-04-01T12:01:04.441Z,55.82
2024-04-01T12:02:04.477Z,56.02
2024-04-01T12:03:04.500Z,55.84
2024-04-01T12:04:04.519Z,55.45
2024-04-01T12:05:04.533Z,54.36
2024-04-01T12:06:04.555Z,53.45
2024-04-01T12:07:04.576Z,56.14
2024-04-01T12:08:04.603Z,53.78
2024-04-01T12:09:04.635Z,54.90
2024-04-01T12:10:04.669Z,55.53
2024-04-01T12:11:04.682Z,55.53
2024-04-01T12:12:04.702Z,52.44
2024-04-01T12:13:04.715Z,53.56
2024-04-01T12:14:05.082Z,54.45
2024-04-01T12:15:04.765Z,55.92
2024-04-01T12:16:04.788Z,55.52
2024-04-01T12:17:04.799Z,55.50
2024-04-01T12:18:04.850Z,55.03
2024-04-01T12:19:04.849Z,55.94
2024-04-01T12:20:04.875Z,55.66
2024-04-01T12:21:04.882Z,57.39
2024-04-01T12:22:04.902Z,55.42
2024-04-01T12:23:04.926Z,52.81
2024-04-01T12:24:04.958Z,53.05
2024-04-01T12:25:04.962Z,56.88
2024-04-01T12:26:04.997Z,52.88
2024-04-01T12:27:05.017Z,56.35
2024-04-01T12:28:05.031Z,55.95
2024-04-01T12:29:05.070Z,53.64
2024-04-01T12:30:05.080Z,56.55
2024-04-01T12:31:05.108Z,53.21
2024-04-01T12:32:05.118Z,56.16
2024-04-01T12:33:09.993Z,54.83
2024-04-01T12:34:06.134Z,54.94
2024-04-01T12:35:05.110Z,54.99
2024-04-01T12:36:05.081Z,56.35
2024-04-01T12:37:05.060Z,55.42
2024-04-01T12:38:05.045Z,54.91
2024-04-01T12:39:05.029Z,57.48
2024-04-01T12:40:05.027Z,53.71
2024-04-01T12:41:05.003Z,55.02
2024-04-01T12:42:04.987Z,55.63
2024-04-01T12:43:04.970Z,55.60
2024-04-01T12:44:04.954Z,54.84
2024-04-01T12:45:04.950Z,55.25
2024-04-01T12:46:04.949Z,54.18
2024-04-01T12:47:04.966Z,55.57
2024-04-01T12:48:05.055Z,53.69
2024-04-01T12:49:05.028Z,55.03
2024-04-01T12:50:05.053Z,55.51
2024-04-01T12:51:05.094Z,56.30
2024-04-01T12:52:05.128Z,54.48
2024-04-01T12:53:05.166Z,52.80